Time;durP1;ratioP1;P1;durP2;ratioP2;P2;SDS_P1;SDS_P2;PMS_P1;PMS_P2;Temp;Humidity;BMP_temperature;BMP_pressure;BME280_temperature;BME280_humidity;BME280_pressure;Samples;Min_cycle;Max_cycle;Signal;HPM_P1;HPM_P2
2022/01/05 00:00:42;;;;;;;17.65;4.07;;;;;;;;;;4995430;28;20026;-26
2022/01/05 00:03:09;;;;;;;33.17;3.40;;;;;;;;;;4994697;28;20442;-26
2022/01/05 00:05:36;;;;;;;22.65;3.97;;;;;;;;;;4997038;28;20125;-26
2022/01/05 00:08:02;;;;;;;30.25;4.18;;;;;;;;;;4999032;28;20361;-26
2022/01/05 00:10:28;;;;;;;25.50;4.75;;;;;;;;;;4998710;28;20031;-26
2022/01/05 00:12:54;;;;;;;24.70;4.15;;;;;;;;;;4998598;28;20445;-26
2022/01/05 00:15:21;;;;;;;24.50;4.80;;;;;;;;;;4998776;28;20029;-25
2022/01/05 00:17:47;;;;;;;19.17;4.63;;;;;;;;;;4998585;28;20156;-25
2022/01/05 00:20:13;;;;;;;28.60;4.85;;;;;;;;;;4997546;28;20450;-26
2022/01/05 00:22:39;;;;;;;20.83;4.03;;;;;;;;;;4998759;28;20022;-26
2022/01/05 00:25:06;;;;;;;19.40;3.80;;;;;;;;;;4998415;28;20474;-26
2022/01/05 00:27:32;;;;;;;22.48;5.38;;;;;;;;;;4998670;28;20053;-26
2022/01/05 00:29:58;;;;;;;18.27;3.63;;;;;;;;;;4998643;28;20039;-26
2022/01/05 00:32:25;;;;;;;30.65;3.35;;;;;;;;;;4998486;28;20034;-26
2022/01/05 00:34:52;;;;;;;20.27;3.22;;;;;;;;;;4998463;28;20026;-26
2022/01/05 00:37:18;;;;;;;22.65;3.80;;;;;;;;;;4998218;28;20092;-26
2022/01/05 00:39:45;;;;;;;20.63;3.10;;;;;;;;;;4998187;28;20356;-26
2022/01/05 00:42:11;;;;;;;16.98;3.58;;;;;;;;;;4998014;28;20113;-26
2022/01/05 00:44:37;;;;;;;14.95;2.75;;;;;;;;;;4998326;28;20023;-26
2022/01/05 00:47:04;;;;;;;17.88;3.00;;;;;;;;;;4998308;28;20045;-26
2022/01/05 00:49:30;;;;;;;24.33;4.90;;;;;;;;;;4998008;28;20022;-26
2022/01/05 00:51:56;;;;;;;24.00;4.95;;;;;;;;;;4997896;28;20109;-26
2022/01/05 00:54:22;;;;;;;18.33;5.35;;;;;;;;;;4998163;28;20030;-26
2022/01/05 00:56:49;;;;;;;10.15;2.90;;;;;;;;;;4998373;28;20026;-25
2022/01/05 00:59:15;;;;;;;16.27;3.75;;;;;;;;;;4998097;28;20409;-26
2022/01/05 01:01:41;;;;;;;18.38;4.05;;;;;;;;;;4997789;28;20053;-26
2022/01/05 01:04:08;;;;;;;15.10;3.38;;;;;;;;;;4997457;28;20042;-26
2022/01/05 01:06:34;;;;;;;15.95;4.68;;;;;;;;;;4997717;28;20035;-26
2022/01/05 01:09:00;;;;;;;12.40;3.05;;;;;;;;;;4997606;28;20018;-26
2022/01/05 01:11:26;;;;;;;19.10;2.90;;;;;;;;;;4996651;28;20034;-26
2022/01/05 01:13:52;;;;;;;17.35;3.47;;;;;;;;;;4997476;28;20034;-26
2022/01/05 01:16:19;;;;;;;20.55;3.60;;;;;;;;;;4996844;28;20022;-25
2022/01/05 01:18:45;;;;;;;12.57;3.45;;;;;;;;;;4997748;28;20022;-26
2022/01/05 01:21:12;;;;;;;19.23;3.30;;;;;;;;;;4997430;28;20026;-26
2022/01/05 01:23:42;;;;;;;17.98;3.45;;;;;;;;;;4997530;28;20046;-26
2022/01/05 01:26:09;;;;;;;11.65;3.30;;;;;;;;;;4997415;28;20365;-26
2022/01/05 01:28:35;;;;;;;16.50;3.83;;;;;;;;;;4997256;28;20027;-26
2022/01/05 01:31:01;;;;;;;12.57;2.58;;;;;;;;;;4997266;28;20034;-26
2022/01/05 01:33:27;;;;;;;17.58;3.05;;;;;;;;;;4997223;28;20110;-26
2022/01/05 01:35:54;;;;;;;18.27;3.30;;;;;;;;;;4997067;28;20034;-26
2022/01/05 01:38:20;;;;;;;14.85;3.53;;;;;;;;;;4997105;28;20035;-26
2022/01/05 01:40:46;;;;;;;20.35;4.28;;;;;;;;;;4997118;28;20030;-26
2022/01/05 01:43:13;;;;;;;13.02;3.40;;;;;;;;;;4996931;28;20109;-26
2022/01/05 01:45:39;;;;;;;16.55;3.30;;;;;;;;;;4997027;28;20040;-26
2022/01/05 01:48:05;;;;;;;18.63;3.05;;;;;;;;;;4995998;28;20036;-25
2022/01/05 01:50:31;;;;;;;11.55;2.60;;;;;;;;;;4996847;28;20042;-25
2022/01/05 01:52:57;;;;;;;16.80;3.08;;;;;;;;;;4996785;28;20121;-26
2022/01/05 01:55:24;;;;;;;20.80;3.67;;;;;;;;;;4996967;28;20096;-26
2022/01/05 01:57:50;;;;;;;14.93;4.07;;;;;;;;;;4997223;28;20037;-25
2022/01/05 02:00:17;;;;;;;11.75;2.75;;;;;;;;;;4996677;28;20029;-26
2022/01/05 02:02:44;;;;;;;7.78;3.20;;;;;;;;;;4996632;28;20034;-26
2022/01/05 02:05:11;;;;;;;17.33;2.72;;;;;;;;;;4996430;28;20076;-26
2022/01/05 02:07:37;;;;;;;13.95;2.83;;;;;;;;;;4996536;28;20119;-25
2022/01/05 02:10:07;;;;;;;12.43;2.65;;;;;;;;;;4996990;28;20057;-26
2022/01/05 02:12:34;;;;;;;12.87;2.30;;;;;;;;;;4996611;28;20026;-26
2022/01/05 02:15:00;;;;;;;10.40;2.67;;;;;;;;;;4996592;28;20417;-26
2022/01/05 02:17:46;;;;;;;14.15;3.10;;;;;;;;;;4996886;28;20030;-26
2022/01/05 02:20:14;;;;;;;16.48;3.08;;;;;;;;;;4996845;28;20088;-26
2022/01/05 02:22:41;;;;;;;14.35;2.42;;;;;;;;;;4996202;28;20038;-26
2022/01/05 02:25:07;;;;;;;13.30;4.05;;;;;;;;;;4996479;28;20088;-26
2022/01/05 02:27:34;;;;;;;11.98;3.20;;;;;;;;;;4996510;28;20034;-26
2022/01/05 02:30:00;;;;;;;12.13;2.65;;;;;;;;;;4995426;28;20022;-26
2022/01/05 02:32:26;;;;;;;12.40;2.70;;;;;;;;;;4995983;28;20045;-26
2022/01/05 02:34:52;;;;;;;13.55;3.13;;;;;;;;;;4995923;28;20030;-26
2022/01/05 02:37:19;;;;;;;16.17;3.90;;;;;;;;;;4996013;28;20359;-26
2022/01/05 02:39:45;;;;;;;13.55;3.75;;;;;;;;;;4996455;28;20026;-26
2022/01/05 02:42:11;;;;;;;7.65;2.38;;;;;;;;;;4996138;28;20033;-25
2022/01/05 02:44:43;;;;;;;10.20;3.70;;;;;;;;;;4996409;28;20054;-25
2022/01/05 02:47:10;;;;;;;12.10;2.90;;;;;;;;;;4996148;28;20030;-26
2022/01/05 02:49:36;;;;;;;7.85;2.22;;;;;;;;;;4995812;28;20026;-25
2022/01/05 02:52:02;;;;;;;6.95;2.63;;;;;;;;;;4995987;28;20026;-26
2022/01/05 02:54:29;;;;;;;15.48;3.50;;;;;;;;;;4995986;28;20100;-26
2022/01/05 02:56:55;;;;;;;13.07;2.88;;;;;;;;;;4996152;28;20085;-26
2022/01/05 02:59:21;;;;;;;22.08;2.97;;;;;;;;;;4995896;28;20046;-26
2022/01/05 03:01:47;;;;;;;14.63;3.22;;;;;;;;;;4995787;28;20030;-26
2022/01/05 03:04:14;;;;;;;10.68;2.78;;;;;;;;;;4995504;28;20080;-26
2022/01/05 03:06:40;;;;;;;9.23;2.22;;;;;;;;;;4995790;28;20390;-26
2022/01/05 03:09:06;;;;;;;9.00;2.25;;;;;;;;;;4995477;28;20026;-26
2022/01/05 03:11:32;;;;;;;8.95;3.60;;;;;;;;;;4995695;28;20044;-26
2022/01/05 03:13:58;;;;;;;17.25;3.38;;;;;;;;;;4995331;28;20030;-26
2022/01/05 03:16:25;;;;;;;10.57;2.60;;;;;;;;;;4995560;28;20034;-26
2022/01/05 03:18:51;;;;;;;9.40;2.42;;;;;;;;;;4995352;28;20037;-25
2022/01/05 03:21:17;;;;;;;13.38;2.88;;;;;;;;;;4995296;28;20037;-26
2022/01/05 03:23:46;;;;;;;11.55;2.55;;;;;;;;;;4995199;28;20034;-26
2022/01/05 03:26:12;;;;;;;8.63;2.92;;;;;;;;;;4995512;28;20034;-26
2022/01/05 03:28:39;;;;;;;9.45;2.45;;;;;;;;;;4995738;28;20033;-26
2022/01/05 03:31:05;;;;;;;13.27;2.72;;;;;;;;;;4995172;28;20501;-26
2022/01/05 03:33:32;;;;;;;8.88;2.35;;;;;;;;;;4995145;28;20117;-26
2022/01/05 03:35:59;;;;;;;10.65;2.50;;;;;;;;;;4995021;28;20041;-25
2022/01/05 03:38:28;;;;;;;10.27;2.22;;;;;;;;;;4996154;28;20018;-26
2022/01/05 03:40:54;;;;;;;13.65;3.20;;;;;;;;;;5000050;28;20030;-26
2022/01/05 03:43:20;;;;;;;6.60;2.13;;;;;;;;;;5001540;28;20019;-26
2022/01/05 03:45:47;;;;;;;13.50;2.95;;;;;;;;;;5001861;28;20036;-26
2022/01/05 03:48:15;;;;;;;12.15;4.13;;;;;;;;;;5001906;28;20022;-26
2022/01/05 03:50:42;;;;;;;9.55;2.33;;;;;;;;;;5001526;28;20039;-26
2022/01/05 03:53:08;;;;;;;9.48;2.80;;;;;;;;;;5001616;28;20023;-26
2022/01/05 03:55:35;;;;;;;15.18;2.72;;;;;;;;;;5001701;28;20033;-26
2022/01/05 03:58:02;;;;;;;13.32;2.83;;;;;;;;;;5001466;28;20374;-26
2022/01/05 04:00:29;;;;;;;11.10;2.65;;;;;;;;;;5002242;28;20061;-26
2022/01/05 04:02:56;;;;;;;10.35;2.40;;;;;;;;;;5001372;28;20045;-25
2022/01/05 04:05:22;;;;;;;9.45;2.58;;;;;;;;;;5001238;28;20054;-26
2022/01/05 04:07:49;;;;;;;10.05;3.22;;;;;;;;;;5001412;28;20050;-26
2022/01/05 04:10:17;;;;;;;11.75;3.00;;;;;;;;;;5001638;28;20056;-25
2022/01/05 04:12:44;;;;;;;15.38;3.28;;;;;;;;;;5001235;28;20026;-25
2022/01/05 04:15:10;;;;;;;11.18;2.45;;;;;;;;;;5001271;28;20030;-25
2022/01/05 04:17:36;;;;;;;8.77;2.38;;;;;;;;;;5000387;28;20030;-25
2022/01/05 04:20:03;;;;;;;11.73;2.80;;;;;;;;;;5001356;28;20026;-25
2022/01/05 04:22:29;;;;;;;11.45;2.63;;;;;;;;;;5001974;28;20041;-25
2022/01/05 04:24:56;;;;;;;5.00;1.90;;;;;;;;;;5001537;28;20026;-25
2022/01/05 04:27:22;;;;;;;8.63;2.22;;;;;;;;;;5001456;28;20041;-26
2022/01/05 04:29:48;;;;;;;5.90;2.03;;;;;;;;;;5001470;28;20023;-26
2022/01/05 04:32:15;;;;;;;7.60;2.50;;;;;;;;;;5001111;28;20026;-25
2022/01/05 04:34:41;;;;;;;8.65;3.80;;;;;;;;;;5001408;28;20031;-25
2022/01/05 04:37:07;;;;;;;7.00;2.72;;;;;;;;;;5001070;28;20033;-26
2022/01/05 04:39:34;;;;;;;14.25;3.38;;;;;;;;;;5001900;28;20034;-26
2022/01/05 04:42:01;;;;;;;8.07;1.90;;;;;;;;;;5001816;28;20022;-25
2022/01/05 04:44:27;;;;;;;7.45;2.72;;;;;;;;;;5000097;28;20480;-26
2022/01/05 04:46:53;;;;;;;10.68;1.98;;;;;;;;;;5001293;28;20034;-26
2022/01/05 04:49:19;;;;;;;8.75;2.70;;;;;;;;;;5001217;28;20038;-26
2022/01/05 04:51:46;;;;;;;7.18;2.25;;;;;;;;;;4998652;28;20034;-25
2022/01/05 04:54:12;;;;;;;10.95;2.72;;;;;;;;;;4998203;28;20371;-25
2022/01/05 04:56:39;;;;;;;13.75;3.70;;;;;;;;;;4998056;28;20018;-26
2022/01/05 04:59:05;;;;;;;5.15;2.72;;;;;;;;;;4997776;28;20038;-25
2022/01/05 05:01:31;;;;;;;9.07;2.65;;;;;;;;;;4998499;28;20030;-26
2022/01/05 05:03:57;;;;;;;7.55;1.95;;;;;;;;;;4997459;28;20061;-26
2022/01/05 05:06:24;;;;;;;9.18;2.65;;;;;;;;;;4997923;28;20319;-25
2022/01/05 05:08:50;;;;;;;6.97;2.22;;;;;;;;;;4997530;28;20022;-26
2022/01/05 05:11:16;;;;;;;16.58;2.55;;;;;;;;;;4997483;28;20026;-26
2022/01/05 05:13:43;;;;;;;8.65;2.00;;;;;;;;;;4998003;28;20034;-26
2022/01/05 05:16:09;;;;;;;11.27;2.30;;;;;;;;;;4997366;28;20092;-25
2022/01/05 05:18:36;;;;;;;13.60;2.80;;;;;;;;;;4997453;28;20065;-25
2022/01/05 05:21:02;;;;;;;11.40;2.63;;;;;;;;;;4997820;28;20062;-25
2022/01/05 05:23:29;;;;;;;7.88;2.53;;;;;;;;;;4997230;28;20061;-26
2022/01/05 05:25:55;;;;;;;8.63;2.25;;;;;;;;;;4997225;28;20511;-26
2022/01/05 05:28:21;;;;;;;4.30;1.92;;;;;;;;;;4997263;28;20050;-25
2022/01/05 05:30:47;;;;;;;7.60;2.53;;;;;;;;;;4997447;28;20029;-26
2022/01/05 05:33:14;;;;;;;11.60;2.40;;;;;;;;;;4997395;28;20032;-26
2022/01/05 05:35:41;;;;;;;6.97;3.10;;;;;;;;;;4996979;28;20070;-26
2022/01/05 05:38:08;;;;;;;10.07;3.47;;;;;;;;;;4997210;28;20421;-26
2022/01/05 05:40:34;;;;;;;7.10;2.35;;;;;;;;;;4996039;28;20048;-26
2022/01/05 05:43:02;;;;;;;5.07;1.98;;;;;;;;;;4996971;28;20113;-26
2022/01/05 05:45:28;;;;;;;6.03;2.13;;;;;;;;;;4996981;28;20030;-26
2022/01/05 05:47:54;;;;;;;5.28;2.67;;;;;;;;;;4997769;28;20030;-26
2022/01/05 05:50:21;;;;;;;9.63;2.50;;;;;;;;;;4997165;28;20112;-27
2022/01/05 05:52:47;;;;;;;10.95;4.68;;;;;;;;;;4996786;28;20037;-27
2022/01/05 05:55:13;;;;;;;8.27;2.10;;;;;;;;;;4996720;28;20457;-27
2022/01/05 05:57:39;;;;;;;10.38;2.45;;;;;;;;;;4996822;28;20030;-26
2022/01/05 06:00:07;;;;;;;8.32;3.22;;;;;;;;;;4996631;28;20023;-27
2022/01/05 06:02:34;;;;;;;5.22;1.92;;;;;;;;;;4996722;28;20378;-26
2022/01/05 06:05:00;;;;;;;10.88;3.67;;;;;;;;;;4996395;28;20100;-26
2022/01/05 06:07:26;;;;;;;7.10;2.05;;;;;;;;;;4996635;28;20402;-27
2022/01/05 06:09:52;;;;;;;6.25;2.35;;;;;;;;;;4996603;28;20030;-27
2022/01/05 06:12:18;;;;;;;6.78;2.65;;;;;;;;;;4996521;28;20161;-27
2022/01/05 06:14:44;;;;;;;7.88;2.28;;;;;;;;;;4996783;28;20023;-25
2022/01/05 06:17:11;;;;;;;9.02;2.15;;;;;;;;;;4996373;28;20133;-27
2022/01/05 06:19:37;;;;;;;11.00;3.45;;;;;;;;;;4997056;28;20041;-27
2022/01/05 06:22:03;;;;;;;12.02;2.42;;;;;;;;;;4996039;28;20037;-27
2022/01/05 06:24:29;;;;;;;7.43;2.60;;;;;;;;;;4996620;28;20034;-26
2022/01/05 06:26:56;;;;;;;8.10;2.00;;;;;;;;;;4996180;28;20423;-26
2022/01/05 06:29:22;;;;;;;4.50;2.58;;;;;;;;;;4996155;28;20469;-26
2022/01/05 06:31:48;;;;;;;10.45;2.65;;;;;;;;;;4996707;28;20433;-26
2022/01/05 06:34:15;;;;;;;7.38;2.75;;;;;;;;;;4995958;28;20022;-26
2022/01/05 06:36:41;;;;;;;14.82;2.83;;;;;;;;;;4995848;28;20034;-26
2022/01/05 06:39:07;;;;;;;5.82;2.50;;;;;;;;;;4995913;28;20030;-26
2022/01/05 06:41:34;;;;;;;7.65;3.30;;;;;;;;;;4995371;28;20125;-26
2022/01/05 06:44:00;;;;;;;11.68;2.35;;;;;;;;;;4995739;28;20026;-25
2022/01/05 06:46:26;;;;;;;6.45;2.40;;;;;;;;;;4995727;28;20054;-26
2022/01/05 06:48:52;;;;;;;8.82;2.38;;;;;;;;;;4996080;28;20034;-26
2022/01/05 06:51:18;;;;;;;6.82;2.47;;;;;;;;;;4995756;28;20031;-26
2022/01/05 06:53:44;;;;;;;10.02;2.33;;;;;;;;;;4995796;28;20030;-25
2022/01/05 06:56:11;;;;;;;6.25;1.98;;;;;;;;;;4995769;28;20120;-26
2022/01/05 06:58:37;;;;;;;11.75;2.92;;;;;;;;;;4995584;28;20085;-25
2022/01/05 07:01:03;;;;;;;16.92;5.65;;;;;;;;;;4995552;28;20157;-26
2022/01/05 07:03:29;;;;;;;10.20;1.92;;;;;;;;;;4994275;28;20046;-26
2022/01/05 07:05:55;;;;;;;6.97;1.92;;;;;;;;;;4995393;28;20053;-26
2022/01/05 07:08:21;;;;;;;9.23;2.72;;;;;;;;;;4995344;28;20034;-26
2022/01/05 07:10:48;;;;;;;12.73;3.00;;;;;;;;;;4995608;28;20085;-26
2022/01/05 07:13:14;;;;;;;6.45;2.30;;;;;;;;;;4995411;28;20378;-26
2022/01/05 07:15:40;;;;;;;8.50;3.03;;;;;;;;;;4995105;28;20027;-26
2022/01/05 07:18:06;;;;;;;8.45;2.70;;;;;;;;;;4995630;28;20022;-26
2022/01/05 07:20:33;;;;;;;12.25;4.05;;;;;;;;;;4995843;28;20026;-26
2022/01/05 07:22:59;;;;;;;7.80;2.83;;;;;;;;;;4995296;28;20022;-26
2022/01/05 07:25:26;;;;;;;20.40;3.65;;;;;;;;;;4995179;28;20026;-26
2022/01/05 07:27:52;;;;;;;10.93;2.67;;;;;;;;;;4995128;28;20092;-26
2022/01/05 07:30:18;;;;;;;11.32;2.72;;;;;;;;;;4995161;28;20030;-26
2022/01/05 07:32:45;;;;;;;14.18;3.63;;;;;;;;;;4995536;28;20405;-26
2022/01/05 07:35:11;;;;;;;15.98;2.95;;;;;;;;;;4994761;28;20027;-26
2022/01/05 07:37:37;;;;;;;11.95;2.42;;;;;;;;;;4994890;28;20113;-26
2022/01/05 07:40:04;;;;;;;17.52;3.38;;;;;;;;;;4994949;28;20365;-26
2022/01/05 07:42:33;;;;;;;13.63;4.82;;;;;;;;;;4994917;28;20019;-27
2022/01/05 07:45:00;;;;;;;20.77;4.90;;;;;;;;;;4994852;28;20026;-27
2022/01/05 07:47:26;;;;;;;12.55;3.60;;;;;;;;;;4994967;28;20031;-27
2022/01/05 07:49:53;;;;;;;18.52;2.90;;;;;;;;;;4995125;28;20034;-27
2022/01/05 07:52:19;;;;;;;17.58;3.38;;;;;;;;;;4995098;28;20031;-26
2022/01/05 07:54:45;;;;;;;14.45;3.00;;;;;;;;;;4995950;28;20044;-27
2022/01/05 07:57:11;;;;;;;9.20;3.38;;;;;;;;;;4995014;28;20038;-27
2022/01/05 07:59:38;;;;;;;14.13;3.30;;;;;;;;;;4994782;28;20477;-27
2022/01/05 08:02:04;;;;;;;18.45;3.55;;;;;;;;;;4994713;28;20038;-27
2022/01/05 08:04:30;;;;;;;19.33;3.90;;;;;;;;;;4994475;28;20466;-27
2022/01/05 08:06:56;;;;;;;10.65;3.88;;;;;;;;;;4995884;28;20121;-27
2022/01/05 08:09:23;;;;;;;16.55;3.30;;;;;;;;;;4995320;28;20033;-27
2022/01/05 08:11:49;;;;;;;24.42;4.50;;;;;;;;;;4995002;28;20113;-27
2022/01/05 08:14:15;;;;;;;20.58;3.97;;;;;;;;;;4993773;28;20405;-27
2022/01/05 08:16:42;;;;;;;21.58;3.80;;;;;;;;;;4993511;28;20122;-27
2022/01/05 08:19:08;;;;;;;16.95;3.47;;;;;;;;;;4994910;28;20084;-27
2022/01/05 08:21:34;;;;;;;13.35;4.18;;;;;;;;;;4994639;28;20023;-27
2022/01/05 08:24:01;;;;;;;10.07;3.25;;;;;;;;;;4995146;28;20453;-27
2022/01/05 08:26:27;;;;;;;16.25;3.60;;;;;;;;;;4995277;28;20168;-27
2022/01/05 08:28:54;;;;;;;18.42;4.03;;;;;;;;;;4998870;28;20037;-27
2022/01/05 08:31:20;;;;;;;12.40;3.53;;;;;;;;;;4998273;28;20038;-27
2022/01/05 08:33:46;;;;;;;15.50;4.00;;;;;;;;;;4998742;28;20026;-27
2022/01/05 08:36:12;;;;;;;11.10;3.47;;;;;;;;;;4997963;28;20065;-27
2022/01/05 08:38:38;;;;;;;27.27;4.88;;;;;;;;;;4998025;28;20134;-27
2022/01/05 08:41:05;;;;;;;14.88;3.00;;;;;;;;;;4998373;28;20081;-27
2022/01/05 08:43:33;;;;;;;14.75;3.45;;;;;;;;;;4998962;28;20034;-27
2022/01/05 08:45:59;;;;;;;19.33;2.78;;;;;;;;;;4998049;28;20097;-27
2022/01/05 08:48:25;;;;;;;15.25;3.08;;;;;;;;;;4998216;28;20030;-27
2022/01/05 08:50:53;;;;;;;14.35;3.58;;;;;;;;;;4998411;28;20038;-27
2022/01/05 08:53:21;;;;;;;15.07;2.55;;;;;;;;;;4997903;28;20038;-27
2022/01/05 08:55:48;;;;;;;17.50;3.15;;;;;;;;;;4998040;28;20106;-27
2022/01/05 08:58:15;;;;;;;17.52;3.78;;;;;;;;;;4998086;28;20027;-27
2022/01/05 09:00:41;;;;;;;11.25;3.40;;;;;;;;;;4998051;28;20037;-27
2022/01/05 09:03:09;;;;;;;12.65;3.20;;;;;;;;;;4997567;28;20033;-27
2022/01/05 09:05:35;;;;;;;13.30;2.83;;;;;;;;;;4997703;28;20071;-27
2022/01/05 09:08:03;;;;;;;12.60;3.75;;;;;;;;;;4997549;28;20112;-32
2022/01/05 09:10:29;;;;;;;12.05;3.55;;;;;;;;;;4997521;28;20030;-27
2022/01/05 09:12:56;;;;;;;9.75;3.72;;;;;;;;;;4996496;28;20058;-27
2022/01/05 09:15:23;;;;;;;11.20;3.53;;;;;;;;;;4997654;28;20429;-26
2022/01/05 09:17:49;;;;;;;10.15;2.78;;;;;;;;;;4997519;28;20061;-27
2022/01/05 09:20:15;;;;;;;18.95;4.40;;;;;;;;;;4997488;28;20146;-27
2022/01/05 09:22:42;;;;;;;13.82;4.93;;;;;;;;;;4997606;28;20043;-27
2022/01/05 09:25:10;;;;;;;12.98;3.22;;;;;;;;;;4997596;28;20417;-25
2022/01/05 09:27:36;;;;;;;13.40;3.65;;;;;;;;;;4997177;28;20034;-25
2022/01/05 09:30:03;;;;;;;11.35;3.58;;;;;;;;;;4997102;28;20046;-26
2022/01/05 09:32:29;;;;;;;19.83;3.55;;;;;;;;;;4997040;28;20038;-27
2022/01/05 09:34:56;;;;;;;16.25;3.83;;;;;;;;;;4997619;28;20022;-27
2022/01/05 09:37:26;;;;;;;9.02;3.05;;;;;;;;;;4996404;28;20454;-27
2022/01/05 09:42:38;;;;;;;16.92;3.65;;;;;;;;;;4997062;28;20045;-27
2022/01/05 09:45:17;;;;;;;14.52;3.10;;;;;;;;;;4997270;28;20046;-27
2022/01/05 09:47:48;;;;;;;10.50;2.45;;;;;;;;;;4997164;28;20102;-27
2022/01/05 09:50:14;;;;;;;13.05;3.35;;;;;;;;;;4997056;28;20328;-27
2022/01/05 09:52:42;;;;;;;15.88;4.78;;;;;;;;;;4996696;28;20030;-27
2022/01/05 09:55:09;;;;;;;23.15;3.88;;;;;;;;;;4996526;28;20045;-27
2022/01/05 09:57:35;;;;;;;9.30;2.42;;;;;;;;;;4996468;28;20030;-27
2022/01/05 10:00:02;;;;;;;11.90;2.67;;;;;;;;;;4996804;28;20030;-27
2022/01/05 10:02:30;;;;;;;14.05;3.50;;;;;;;;;;4996450;28;20097;-27
2022/01/05 10:04:56;;;;;;;9.18;3.30;;;;;;;;;;4996248;28;20489;-27
2022/01/05 10:07:22;;;;;;;12.20;2.90;;;;;;;;;;4996464;28;20034;-27
2022/01/05 10:09:49;;;;;;;7.60;2.65;;;;;;;;;;4996478;28;20070;-27
2022/01/05 10:12:16;;;;;;;10.70;3.33;;;;;;;;;;4996286;28;20101;-27
2022/01/05 10:14:43;;;;;;;8.10;3.30;;;;;;;;;;4996411;28;20401;-27
2022/01/05 10:17:14;;;;;;;14.75;3.08;;;;;;;;;;4996005;28;20393;-27
2022/01/05 10:19:41;;;;;;;17.85;3.88;;;;;;;;;;4996554;28;20038;-27
2022/01/05 10:22:28;;;;;;;7.57;2.60;;;;;;;;;;4996377;28;20030;-27
2022/01/05 10:24:56;;;;;;;18.15;4.35;;;;;;;;;;4996003;28;20030;-27
2022/01/05 10:27:24;;;;;;;10.85;3.40;;;;;;;;;;4996365;28;20404;-27
2022/01/05 10:29:52;;;;;;;11.20;2.92;;;;;;;;;;4996033;28;20038;-27
2022/01/05 10:32:19;;;;;;;14.98;3.00;;;;;;;;;;4995840;28;20485;-27
2022/01/05 10:34:59;;;;;;;17.52;3.65;;;;;;;;;;4996188;28;20133;-27
2022/01/05 10:37:26;;;;;;;16.70;3.20;;;;;;;;;;4995706;28;20101;-27
2022/01/05 10:40:04;;;;;;;16.55;2.95;;;;;;;;;;4995746;28;20042;-27
2022/01/05 10:42:32;;;;;;;13.48;3.72;;;;;;;;;;4995899;28;20404;-27
2022/01/05 10:44:58;;;;;;;12.48;2.28;;;;;;;;;;4995648;28;20476;-27
2022/01/05 10:47:25;;;;;;;12.80;3.05;;;;;;;;;;4995928;28;20022;-27
2022/01/05 10:49:54;;;;;;;17.70;3.65;;;;;;;;;;4994575;28;20034;-27
2022/01/05 10:52:24;;;;;;;10.20;3.17;;;;;;;;;;4995585;28;20030;-27
2022/01/05 10:54:51;;;;;;;10.40;2.70;;;;;;;;;;4995447;28;20049;-27
2022/01/05 10:57:18;;;;;;;6.18;2.38;;;;;;;;;;4995307;28;20034;-27
2022/01/05 10:59:46;;;;;;;8.38;2.58;;;;;;;;;;4995304;28;20026;-27
2022/01/05 11:02:23;;;;;;;13.48;2.92;;;;;;;;;;4995574;28;20409;-27
2022/01/05 11:04:50;;;;;;;22.70;2.97;;;;;;;;;;4995260;28;20104;-27
2022/01/05 11:07:20;;;;;;;12.93;3.75;;;;;;;;;;4995310;28;20038;-27
2022/01/05 11:10:01;;;;;;;13.88;3.03;;;;;;;;;;4995519;28;20457;-27
2022/01/05 11:12:35;;;;;;;20.40;3.08;;;;;;;;;;4995468;28;20053;-27
2022/01/05 11:15:22;;;;;;;11.20;3.10;;;;;;;;;;4995452;28;20318;-27
2022/01/05 11:18:17;;;;;;;10.68;3.20;;;;;;;;;;4994192;28;20030;-27
2022/01/05 11:20:56;;;;;;;9.05;3.47;;;;;;;;;;4994661;28;20058;-27
2022/01/05 11:26:31;;;;;;;11.00;2.95;;;;;;;;;;4995613;28;20029;-27
2022/01/05 11:28:59;;;;;;;8.15;2.95;;;;;;;;;;4995087;28;20454;-27
2022/01/05 11:31:25;;;;;;;10.07;2.92;;;;;;;;;;4994994;28;20097;-27
2022/01/05 11:33:53;;;;;;;13.25;3.20;;;;;;;;;;4994814;28;20239;-27
2022/01/05 11:36:20;;;;;;;14.32;3.28;;;;;;;;;;4995195;28;20037;-27
2022/01/05 11:38:59;;;;;;;14.07;3.00;;;;;;;;;;4995030;28;20034;-27
2022/01/05 11:41:29;;;;;;;13.65;3.03;;;;;;;;;;4994036;28;20105;-27
2022/01/05 11:43:56;;;;;;;13.25;2.63;;;;;;;;;;4994978;28;20014;-27
2022/01/05 11:46:22;;;;;;;13.65;2.95;;;;;;;;;;4995257;28;20038;-27
2022/01/05 11:49:08;;;;;;;8.23;2.95;;;;;;;;;;4995152;28;20027;-27
2022/01/05 11:51:45;;;;;;;20.92;4.22;;;;;;;;;;4995162;28;20109;-27
2022/01/05 11:54:17;;;;;;;14.85;3.25;;;;;;;;;;4993758;28;20492;-27
2022/01/05 11:56:51;;;;;;;13.88;3.60;;;;;;;;;;4994871;28;20105;-27
2022/01/05 11:59:25;;;;;;;9.50;2.95;;;;;;;;;;4995149;28;20031;-27
2022/01/05 12:01:59;;;;;;;14.30;2.22;;;;;;;;;;4997622;28;20018;-27
2022/01/05 12:04:27;;;;;;;9.23;2.53;;;;;;;;;;4998638;28;20043;-27
2022/01/05 12:07:00;;;;;;;7.20;2.63;;;;;;;;;;4998666;28;20033;-27
2022/01/05 12:09:30;;;;;;;11.32;3.38;;;;;;;;;;4998630;28;20096;-27
2022/01/05 12:12:00;;;;;;;11.88;2.53;;;;;;;;;;4997511;28;20034;-27
2022/01/05 12:14:32;;;;;;;9.00;2.85;;;;;;;;;;4998815;28;20110;-27
2022/01/05 12:17:02;;;;;;;13.85;3.58;;;;;;;;;;4998780;28;20030;-27
2022/01/05 12:19:29;;;;;;;10.75;3.20;;;;;;;;;;4998378;28;20034;-27
2022/01/05 12:21:57;;;;;;;15.02;3.13;;;;;;;;;;4998253;28;20026;-27
2022/01/05 12:24:23;;;;;;;12.07;3.03;;;;;;;;;;4998234;28;20026;-27
2022/01/05 12:27:08;;;;;;;10.07;2.92;;;;;;;;;;4998276;28;20096;-27
2022/01/05 12:29:35;;;;;;;9.80;2.50;;;;;;;;;;4998490;28;20026;-27
2022/01/05 12:32:01;;;;;;;10.75;2.85;;;;;;;;;;4998429;28;20029;-27
2022/01/05 12:34:47;;;;;;;7.60;2.30;;;;;;;;;;4998091;28;20424;-27
2022/01/05 12:37:32;;;;;;;8.80;2.60;;;;;;;;;;4997899;28;20027;-27
2022/01/05 12:40:02;;;;;;;10.10;2.58;;;;;;;;;;4998003;28;20034;-27
2022/01/05 12:42:33;;;;;;;13.40;4.82;;;;;;;;;;4997961;28;20165;-27
2022/01/05 12:45:00;;;;;;;16.20;3.13;;;;;;;;;;4996740;28;20050;-27
2022/01/05 12:47:37;;;;;;;11.68;2.42;;;;;;;;;;4996799;28;20031;-27
2022/01/05 12:50:16;;;;;;;13.70;2.42;;;;;;;;;;4997715;28;20065;-27
2022/01/05 12:52:42;;;;;;;16.63;2.78;;;;;;;;;;4998188;28;20030;-27
2022/01/05 12:55:08;;;;;;;8.52;3.50;;;;;;;;;;4997681;28;20031;-27
2022/01/05 12:57:36;;;;;;;10.75;2.65;;;;;;;;;;4998058;28;20446;-27
2022/01/05 13:00:04;;;;;;;10.40;2.67;;;;;;;;;;4997553;28;20034;-27
2022/01/05 13:02:31;;;;;;;16.80;4.30;;;;;;;;;;4997413;28;20026;-27
2022/01/05 13:05:05;;;;;;;12.95;3.22;;;;;;;;;;4997318;28;20080;-27
2022/01/05 13:07:38;;;;;;;12.43;3.10;;;;;;;;;;4997528;28;20053;-27
2022/01/05 13:10:04;;;;;;;9.18;2.80;;;;;;;;;;4997689;28;20049;-27
2022/01/05 13:12:31;;;;;;;13.68;2.80;;;;;;;;;;4995605;28;20089;-27
2022/01/05 13:14:59;;;;;;;12.35;2.63;;;;;;;;;;4997505;28;20058;-27
2022/01/05 13:17:31;;;;;;;10.57;2.97;;;;;;;;;;4997660;28;20038;-27
2022/01/05 13:20:06;;;;;;;16.40;3.17;;;;;;;;;;4997787;28;20358;-27
2022/01/05 13:22:45;;;;;;;13.32;2.97;;;;;;;;;;4997666;28;20125;-27
2022/01/05 13:25:16;;;;;;;9.13;2.72;;;;;;;;;;4997459;28;20071;-27
2022/01/05 13:27:45;;;;;;;7.80;2.35;;;;;;;;;;4997569;28;20347;-27
2022/01/05 13:30:19;;;;;;;12.75;3.30;;;;;;;;;;4997482;28;20409;-27
2022/01/05 13:32:47;;;;;;;12.82;3.60;;;;;;;;;;4996911;28;20033;-27
2022/01/05 13:35:23;;;;;;;10.70;3.55;;;;;;;;;;4997026;28;20136;-27
2022/01/05 13:37:54;;;;;;;14.10;3.30;;;;;;;;;;4997529;28;20037;-27
2022/01/05 13:40:21;;;;;;;14.77;2.38;;;;;;;;;;4997287;28;20034;-27
2022/01/05 13:42:58;;;;;;;13.10;2.30;;;;;;;;;;4997063;28;20030;-27
2022/01/05 13:45:26;;;;;;;15.07;2.47;;;;;;;;;;4997170;28;20030;-27
2022/01/05 13:48:02;;;;;;;11.35;3.53;;;;;;;;;;4996756;28;20022;-27
2022/01/05 13:50:36;;;;;;;15.18;3.75;;;;;;;;;;4996611;28;20018;-27
2022/01/05 13:53:04;;;;;;;11.20;3.40;;;;;;;;;;4996687;28;20046;-27
2022/01/05 13:55:44;;;;;;;12.95;3.28;;;;;;;;;;4996796;28;20015;-27
2022/01/05 13:58:18;;;;;;;10.00;2.65;;;;;;;;;;4996417;28;20023;-27
2022/01/05 14:00:46;;;;;;;11.00;2.47;;;;;;;;;;4996439;28;20038;-27
2022/01/05 14:03:25;;;;;;;7.70;2.90;;;;;;;;;;4996383;28;20064;-27
2022/01/05 14:05:52;;;;;;;14.65;4.10;;;;;;;;;;4996621;28;20109;-27
2022/01/05 14:08:18;;;;;;;9.00;2.90;;;;;;;;;;4996307;28;20034;-27
2022/01/05 14:10:45;;;;;;;12.77;3.00;;;;;;;;;;4996477;28;20050;-27
2022/01/05 14:13:12;;;;;;;18.42;3.10;;;;;;;;;;4996341;28;20034;-27
2022/01/05 14:15:38;;;;;;;10.13;3.03;;;;;;;;;;4995981;28;20044;-27
2022/01/05 14:18:10;;;;;;;14.73;3.85;;;;;;;;;;4996619;28;20357;-27
2022/01/05 14:20:47;;;;;;;14.25;3.20;;;;;;;;;;4995243;28;20026;-26
2022/01/05 14:23:17;;;;;;;16.27;2.90;;;;;;;;;;4995133;28;20450;-26
2022/01/05 14:25:48;;;;;;;19.50;3.55;;;;;;;;;;4996013;28;20097;-27
2022/01/05 14:28:15;;;;;;;16.85;4.75;;;;;;;;;;4995950;28;20036;-27
2022/01/05 14:30:51;;;;;;;13.15;3.13;;;;;;;;;;4996515;28;20034;-27
2022/01/05 14:33:31;;;;;;;9.38;3.83;;;;;;;;;;4995018;28;20446;-27
2022/01/05 14:35:58;;;;;;;17.05;4.68;;;;;;;;;;4996227;28;20120;-27
2022/01/05 14:38:24;;;;;;;13.02;3.47;;;;;;;;;;4996214;28;20118;-27
2022/01/05 14:40:51;;;;;;;9.68;3.38;;;;;;;;;;4996165;28;20121;-26
2022/01/05 14:43:18;;;;;;;9.10;2.72;;;;;;;;;;4995742;28;20030;-28